createdAt,value
2023-05-25T04:32:45.999Z,5.75
2023-05-25T04:33:47.619Z,5.73
2023-05-25T07:13:33.080Z,12.38
2023-05-25T07:15:37.202Z,12.09
2023-05-25T07:17:41.433Z,11.93
2023-05-25T07:21:11.196Z,12.17
2023-05-25T07:23:19.028Z,12.02
2023-05-25T07:25:43.645Z,12.33
2023-05-25T07:26:45.614Z,12.44
2023-05-25T07:27:54.941Z,12.42
2023-05-25T07:28:56.418Z,12.71
2023-05-25T07:29:57.819Z,12.70
2023-05-25T07:30:59.354Z,12.93
2023-05-25T07:32:00.829Z,12.68
2023-05-25T07:33:02.294Z,12.80
2023-05-25T07:34:03.904Z,12.87
2023-05-25T07:35:06.038Z,13.06
2023-05-25T07:36:08.365Z,13.06
2023-05-25T07:37:09.907Z,13.25
2023-05-25T07:38:11.326Z,13.13
2023-05-25T07:39:12.891Z,13.27
2023-05-25T07:40:14.421Z,13.28
2023-05-25T07:41:15.935Z,13.00
2023-05-25T07:42:21.047Z,13.00
2023-05-25T07:43:22.602Z,13.22
2023-05-25T07:44:24.053Z,13.15
2023-05-25T07:45:25.668Z,13.20
2023-05-25T07:46:27.307Z,13.39
2023-05-25T07:47:29.077Z,13.43
2023-05-25T07:48:30.718Z,13.43
2023-05-25T07:49:32.392Z,13.28
2023-05-25T07:50:33.778Z,13.54
2023-05-25T07:51:35.204Z,13.62
2023-05-25T07:52:38.278Z,13.61
2023-05-25T07:53:39.904Z,13.84
2023-05-25T07:54:41.420Z,13.91
2023-05-25T07:55:43.088Z,13.87
2023-05-25T07:56:44.977Z,13.92
2023-05-25T07:57:46.447Z,14.04
2023-05-25T07:58:48.739Z,14.07
2023-05-25T07:59:50.337Z,14.20
2023-05-25T08:00:51.802Z,14.20
2023-05-25T08:01:53.270Z,14.13
2023-05-25T08:02:56.197Z,14.13
2023-05-25T08:03:58.304Z,14.13
2023-05-25T08:05:05.177Z,14.39
2023-05-25T08:06:06.820Z,14.37
2023-05-25T08:07:08.363Z,14.32
2023-05-25T08:08:10.544Z,14.42
2023-05-25T08:09:13.242Z,14.41
2023-05-25T08:10:14.809Z,14.52
2023-05-25T08:11:17.140Z,14.77
2023-05-25T08:13:23.021Z,14.81
2023-05-25T08:14:24.492Z,15.01
2023-05-25T08:15:26.590Z,15.22
2023-05-25T08:16:28.142Z,15.43
2023-05-25T08:17:29.816Z,15.45
2023-05-25T08:18:31.581Z,15.62
2023-05-25T08:19:33.131Z,15.67
2023-05-25T08:20:34.886Z,15.92
2023-05-25T08:21:37.758Z,15.95
2023-05-25T08:22:39.206Z,15.28
2023-05-25T08:23:42.756Z,15.68
2023-05-25T08:24:44.286Z,16.02
2023-05-25T08:25:46.319Z,16.20
2023-05-25T08:26:54.774Z,16.30
2023-05-25T08:27:56.583Z,16.35
2023-05-25T08:28:57.985Z,16.82
2023-05-25T08:29:59.586Z,17.06
2023-05-25T08:31:01.394Z,17.28
2023-05-25T08:32:02.989Z,16.92
2023-05-25T08:33:05.176Z,17.04
2023-05-25T08:34:06.651Z,17.11
2023-05-25T08:35:08.591Z,17.20
2023-05-25T08:36:10.715Z,17.24
2023-05-25T08:37:12.165Z,17.18
2023-05-25T08:38:13.579Z,17.29
2023-05-25T08:39:15.808Z,17.27
2023-05-25T08:40:20.805Z,17.01
2023-05-25T08:41:22.819Z,17.24
2023-05-25T08:42:24.224Z,17.54
2023-05-25T08:43:25.735Z,17.59
2023-05-25T08:44:27.351Z,17.81
2023-05-25T08:45:47.260Z,17.91
2023-05-25T08:46:50.049Z,17.84
2023-05-25T08:47:55.465Z,18.24
2023-05-25T08:49:06.335Z,18.10
2023-05-25T08:50:09.719Z,18.15
2023-05-25T08:51:13.541Z,18.32
2023-05-25T08:52:16.282Z,18.26
2023-05-25T08:53:18.943Z,18.39
2023-05-25T08:54:24.816Z,18.50
2023-05-25T08:55:31.843Z,18.45
2023-05-25T08:56:37.192Z,18.53
2023-05-25T08:57:53.822Z,18.53
2023-05-25T08:59:06.267Z,18.53
2023-05-25T09:00:12.876Z,18.57
2023-05-25T09:01:18.222Z,18.04
2023-05-25T09:02:56.279Z,18.02
2023-05-25T09:04:00.029Z,18.56
2023-05-25T09:05:02.530Z,18.53
2023-05-25T09:06:04.378Z,18.72
2023-05-25T09:07:10.951Z,18.43
2023-05-25T09:08:13.965Z,18.77
2023-05-25T09:09:15.664Z,19.20
2023-05-25T09:10:17.522Z,19.47
2023-05-25T09:11:34.750Z,19.52
2023-05-25T09:12:39.400Z,19.89
2023-05-25T09:13:41.069Z,19.77
2023-05-25T09:14:47.905Z,19.70
2023-05-25T09:15:49.877Z,19.83
2023-05-25T09:16:51.615Z,19.91
2023-05-25T09:17:53.163Z,19.56
2023-05-25T09:18:54.564Z,19.69
2023-05-25T09:19:56.301Z,19.61
2023-05-25T09:20:58.164Z,19.65
2023-05-25T09:22:14.159Z,19.83
2023-05-25T09:23:17.362Z,19.81
2023-05-25T09:24:19.145Z,19.67
2023-05-25T09:25:20.600Z,19.25
2023-05-25T09:26:22.206Z,18.85
2023-05-25T09:27:23.962Z,18.61
2023-05-25T09:28:27.605Z,18.84
2023-05-25T09:29:29.993Z,19.20
2023-05-25T09:30:32.974Z,19.46
2023-05-25T09:31:34.680Z,19.46
2023-05-25T09:32:36.224Z,19.39
2023-05-25T09:33:40.006Z,19.45
2023-05-25T09:34:45.780Z,19.49
2023-05-25T09:35:47.898Z,19.32
2023-05-25T09:36:49.604Z,19.49
2023-05-25T09:37:54.810Z,19.69
2023-05-25T09:38:56.730Z,19.83
2023-05-25T09:39:58.291Z,19.38
2023-05-25T09:40:59.792Z,19.86
2023-05-25T09:42:02.335Z,19.91
2023-05-25T09:43:05.118Z,20.04
2023-05-25T09:44:11.798Z,20.52
2023-05-25T09:45:13.747Z,20.68
2023-05-25T09:46:15.360Z,20.51
2023-05-25T09:47:18.064Z,20.38
2023-05-25T09:48:21.550Z,20.75
2023-05-25T09:49:23.062Z,20.86
2023-05-25T09:50:27.129Z,20.70
2023-05-25T09:51:31.017Z,20.35
2023-05-25T09:52:32.704Z,19.35
2023-05-25T09:53:34.953Z,19.20
2023-05-25T09:54:37.637Z,19.69
2023-05-25T09:55:52.432Z,20.49
2023-05-25T09:56:55.821Z,20.77
2023-05-25T09:57:57.511Z,20.29
2023-05-25T09:58:59.252Z,20.34
2023-05-25T10:00:00.714Z,20.47
2023-05-25T10:01:02.146Z,20.44
2023-05-25T10:02:03.733Z,20.37
2023-05-25T10:03:07.948Z,20.52
2023-05-25T10:04:09.583Z,20.37
2023-05-25T10:05:11.131Z,20.68
2023-05-25T10:06:14.643Z,20.91
2023-05-25T10:07:17.325Z,21.00
2023-05-25T10:08:21.512Z,21.27
2023-05-25T10:09:25.889Z,21.73
2023-05-25T10:10:28.250Z,21.73
2023-05-25T10:11:29.999Z,21.84
2023-05-25T10:12:32.213Z,21.39
2023-05-25T10:13:33.779Z,21.60
2023-05-25T10:14:38.424Z,21.29
2023-05-25T10:15:42.375Z,21.42
2023-05-25T10:16:49.933Z,21.37
2023-05-25T10:17:55.781Z,20.91
2023-05-25T10:19:16.152Z,20.76
2023-05-25T10:20:18.296Z,20.10
2023-05-25T10:21:22.673Z,20.49
2023-05-25T10:22:31.746Z,20.67
2023-05-25T10:23:38.292Z,21.28
2023-05-25T10:24:45.132Z,21.07
2023-05-25T10:25:55.140Z,21.07
2023-05-25T10:27:03.219Z,20.83
2023-05-25T10:28:21.803Z,20.46
2023-05-25T10:29:25.283Z,20.80
2023-05-25T10:30:27.811Z,20.67
2023-05-25T10:31:31.404Z,20.49
2023-05-25T10:32:34.721Z,20.56
2023-05-25T10:33:37.312Z,21.07
2023-05-25T10:34:38.929Z,21.11
2023-05-25T10:36:01.655Z,21.07
2023-05-25T10:37:05.600Z,21.24
2023-05-25T10:38:08.632Z,21.36
2023-05-25T10:39:10.267Z,21.73
2023-05-25T10:40:13.175Z,21.59
2023-05-25T10:41:16.031Z,21.63
2023-05-25T10:42:18.869Z,21.86
2023-05-25T10:43:21.489Z,21.94
2023-05-25T10:44:23.958Z,22.43
2023-05-25T10:45:25.718Z,22.47
2023-05-25T10:46:29.076Z,22.52
2023-05-25T10:47:30.772Z,22.29
2023-05-25T10:48:40.544Z,22.01
2023-05-25T10:49:54.211Z,21.39
2023-05-25T10:50:55.681Z,22.19
2023-05-25T10:51:59.675Z,22.76
2023-05-25T10:53:03.632Z,22.46
2023-05-25T10:54:05.224Z,22.66
2023-05-25T10:55:07.594Z,22.65
2023-05-25T10:56:10.792Z,22.89
2023-05-25T10:57:18.022Z,22.79
2023-05-25T10:58:21.544Z,22.71
2023-05-25T10:59:28.424Z,22.80
2023-05-25T11:00:31.211Z,22.57
2023-05-25T11:01:36.445Z,22.52
2023-05-25T11:02:53.834Z,22.50
2023-05-25T11:03:58.087Z,21.88
2023-05-25T11:05:31.606Z,21.89
2023-05-25T11:06:44.283Z,22.13
2023-05-25T11:07:55.769Z,21.60
2023-05-25T11:09:06.493Z,21.62
2023-05-25T11:10:08.151Z,21.74
2023-05-25T11:11:09.594Z,22.06
2023-05-25T11:12:22.437Z,22.35
2023-05-25T11:13:38.988Z,22.22
2023-05-25T11:14:42.484Z,21.46
2023-05-25T11:15:44.557Z,22.04
2023-05-25T11:17:04.827Z,22.79
2023-05-25T11:18:14.807Z,22.81
2023-05-25T11:19:16.351Z,22.32
2023-05-25T11:20:27.609Z,22.89
2023-05-25T11:21:30.296Z,23.06
2023-05-25T11:22:32.861Z,22.91
2023-05-25T11:23:51.875Z,23.39
2023-05-25T11:24:54.119Z,23.54
2023-05-25T11:26:05.877Z,23.60
2023-05-25T11:27:08.776Z,23.12
2023-05-25T11:28:12.020Z,22.91
2023-05-25T11:29:15.805Z,22.59
2023-05-25T11:30:20.499Z,22.60
2023-05-25T11:31:29.106Z,22.70
2023-05-25T11:32:30.722Z,22.56
2023-05-25T11:33:32.217Z,22.48
2023-05-25T11:34:33.772Z,22.57
2023-05-25T11:35:38.199Z,22.78
2023-05-25T11:36:39.752Z,22.67
2023-05-25T11:37:42.191Z,22.58
2023-05-25T11:38:56.325Z,22.43
2023-05-25T11:40:07.237Z,22.05
2023-05-25T11:41:16.872Z,22.20
2023-05-25T11:42:22.816Z,22.62
2023-05-25T11:43:26.284Z,22.71
2023-05-25T11:44:33.739Z,22.75
2023-05-25T11:45:37.332Z,22.27
2023-05-25T11:46:38.935Z,22.17
2023-05-25T11:47:40.542Z,22.21
2023-05-25T11:48:50.039Z,22.46
2023-05-25T11:49:51.553Z,22.46
2023-05-25T11:51:06.354Z,22.38
2023-05-25T11:52:08.231Z,22.21
2023-05-25T11:53:10.874Z,22.21
2023-05-25T11:54:21.760Z,22.50
2023-05-25T11:55:23.364Z,22.49
2023-05-25T11:56:35.097Z,22.47
2023-05-25T11:57:37.536Z,22.28
2023-05-25T11:58:39.299Z,22.39
2023-05-25T11:59:41.682Z,22.59
2023-05-25T12:00:43.245Z,22.61
2023-05-25T12:01:54.811Z,22.23
2023-05-25T12:02:57.472Z,22.25
2023-05-25T12:04:08.625Z,21.96
2023-05-25T12:05:11.874Z,22.02
2023-05-25T12:06:29.720Z,22.24
2023-05-25T12:07:34.222Z,22.50
2023-05-25T12:08:36.609Z,22.24
2023-05-25T12:09:38.011Z,22.23
2023-05-25T12:10:52.218Z,22.18
2023-05-25T12:11:54.088Z,22.49
2023-05-25T12:13:00.211Z,22.64
2023-05-25T12:14:04.738Z,22.11
2023-05-25T12:15:06.964Z,22.31
2023-05-25T12:16:08.608Z,22.40
2023-05-25T12:17:10.742Z,21.81
2023-05-25T12:18:12.403Z,22.41
2023-05-25T12:19:14.125Z,22.61
2023-05-25T12:20:17.636Z,22.88
2023-05-25T12:21:21.658Z,22.76
2023-05-25T12:22:23.126Z,22.61
2023-05-25T12:23:25.383Z,22.03
2023-05-25T12:24:26.935Z,22.11
2023-05-25T12:25:46.114Z,21.58
2023-05-25T12:26:57.199Z,22.27
2023-05-25T12:28:12.094Z,22.39
2023-05-25T12:29:13.697Z,22.61
2023-05-25T12:30:15.237Z,22.62
2023-05-25T12:31:24.213Z,22.88
2023-05-25T12:32:26.231Z,22.88
2023-05-25T12:33:27.656Z,22.73
2023-05-25T12:34:29.202Z,23.03
2023-05-25T12:35:46.692Z,22.89
2023-05-25T12:36:53.622Z,22.88
2023-05-25T12:38:15.153Z,23.07
2023-05-25T12:39:18.379Z,23.58
2023-05-25T12:40:20.979Z,23.63
2023-05-25T12:41:22.478Z,23.89
2023-05-25T12:42:26.557Z,24.01
2023-05-25T12:43:37.462Z,24.07
2023-05-25T12:44:38.913Z,23.77
2023-05-25T12:45:41.627Z,23.96
2023-05-25T12:46:43.124Z,24.34
2023-05-25T12:47:45.772Z,24.36
2023-05-25T12:48:47.849Z,24.28
2023-05-25T12:49:52.068Z,24.28
2023-05-25T12:50:59.520Z,24.03
2023-05-25T12:52:03.780Z,24.08
2023-05-25T12:53:05.502Z,23.46
2023-05-25T12:54:07.034Z,23.32
2023-05-25T12:55:22.009Z,23.07
2023-05-25T12:56:23.448Z,23.40
2023-05-25T12:57:35.255Z,23.41
2023-05-25T12:58:36.703Z,24.01
2023-05-25T12:59:38.931Z,24.23
2023-05-25T13:00:41.443Z,24.46
2023-05-25T13:01:43.607Z,24.19
2023-05-25T13:02:47.790Z,24.15
2023-05-25T13:03:50.133Z,24.56
2023-05-25T13:04:51.761Z,25.19
2023-05-25T13:06:00.602Z,24.39
2023-05-25T13:07:02.911Z,23.80
2023-05-25T13:08:06.187Z,23.87
2023-05-25T13:09:07.727Z,24.81
2023-05-25T13:10:09.951Z,24.77
2023-05-25T13:11:11.443Z,24.52
2023-05-25T13:12:12.878Z,24.48
2023-05-25T13:13:14.347Z,24.67
2023-05-25T13:14:16.179Z,25.21
2023-05-25T13:15:21.054Z,25.48
2023-05-25T13:16:23.078Z,25.17
2023-05-25T13:17:24.627Z,25.07
2023-05-25T13:18:26.635Z,25.26
2023-05-25T13:19:28.045Z,25.13
2023-05-25T13:20:30.655Z,25.35
2023-05-25T13:21:32.806Z,25.77
2023-05-25T13:22:34.212Z,25.59
2023-05-25T13:23:35.995Z,25.66
2023-05-25T13:24:37.417Z,25.95
2023-05-25T13:25:39.314Z,26.05
2023-05-25T13:26:40.863Z,26.27
2023-05-25T13:27:48.644Z,26.83
2023-05-25T13:28:50.153Z,26.78
2023-05-25T13:29:52.106Z,26.31
2023-05-25T13:30:53.478Z,25.86
2023-05-25T13:31:55.053Z,25.69
2023-05-25T13:32:56.850Z,25.97
2023-05-25T13:33:58.971Z,26.13
2023-05-25T13:35:01.212Z,26.40
2023-05-25T13:36:09.051Z,26.69
2023-05-25T13:37:10.829Z,25.56
2023-05-25T13:38:13.423Z,25.42
2023-05-25T13:39:16.011Z,25.74
2023-05-25T13:40:17.616Z,26.17
2023-05-25T13:41:19.161Z,26.26
2023-05-25T13:42:20.744Z,26.18
2023-05-25T13:43:22.131Z,25.71
2023-05-25T13:44:23.560Z,25.46
2023-05-25T13:45:25.257Z,24.96
2023-05-25T13:47:35.011Z,25.15
2023-05-25T13:48:36.657Z,25.10
2023-05-25T13:49:38.223Z,24.29
2023-05-25T13:50:39.675Z,23.89
2023-05-25T13:51:41.390Z,23.96
2023-05-25T13:52:42.930Z,24.27
2023-05-25T13:53:44.498Z,24.32
2023-05-25T13:54:46.044Z,24.35
2023-05-25T13:55:47.813Z,24.43
2023-05-25T13:56:52.310Z,23.74
2023-05-25T13:57:53.714Z,23.31
2023-05-25T13:58:55.156Z,23.45
2023-05-25T13:59:56.561Z,24.02
2023-05-25T14:00:58.033Z,24.54
2023-05-25T14:01:59.742Z,25.43
2023-05-25T14:03:01.478Z,25.20
2023-05-25T14:04:03.915Z,24.99
2023-05-25T14:05:05.749Z,25.07
2023-05-25T14:06:07.298Z,24.83
2023-05-25T14:07:08.758Z,24.82
2023-05-25T14:08:12.678Z,25.19
2023-05-25T14:09:14.243Z,25.34
2023-05-25T14:10:16.284Z,25.01
2023-05-25T14:11:21.898Z,24.76
2023-05-25T14:12:28.309Z,24.48
2023-05-25T14:13:30.021Z,24.87
2023-05-25T14:14:32.894Z,25.24
2023-05-25T14:15:34.572Z,24.85
2023-05-25T14:16:36.118Z,25.13
2023-05-25T14:17:37.861Z,24.80
2023-05-25T14:18:39.293Z,24.97
2023-05-25T14:19:40.749Z,25.10
2023-05-25T14:20:42.829Z,24.66
2023-05-25T14:21:44.483Z,24.42
2023-05-25T14:22:46.099Z,24.08
2023-05-25T14:23:47.533Z,24.12
2023-05-25T14:24:49.076Z,23.84
2023-05-25T14:25:50.572Z,24.11
2023-05-25T14:26:52.012Z,23.57
2023-05-25T14:27:53.503Z,24.13
2023-05-25T14:28:55.665Z,24.46
2023-05-25T14:29:57.068Z,24.90
2023-05-25T14:30:59.084Z,24.97
2023-05-25T14:32:00.935Z,25.08
2023-05-25T14:33:02.507Z,25.34
2023-05-25T14:34:04.069Z,25.56
2023-05-25T14:35:05.959Z,25.93
2023-05-25T14:36:07.706Z,25.56
2023-05-25T14:37:09.653Z,25.26
2023-05-25T14:38:11.250Z,25.55
2023-05-25T14:39:15.044Z,25.30
2023-05-25T14:40:18.673Z,24.99
2023-05-25T14:41:25.428Z,24.83
2023-05-25T14:42:27.187Z,24.75
2023-05-25T14:43:28.719Z,23.87
2023-05-25T14:44:30.320Z,24.15
2023-05-25T14:45:31.823Z,24.78
2023-05-25T14:46:33.924Z,24.87
2023-05-25T14:47:35.577Z,25.66
2023-05-25T14:48:37.035Z,26.10
2023-05-25T14:49:38.512Z,26.27
2023-05-25T14:50:41.929Z,26.86
2023-05-25T14:51:43.371Z,26.14
2023-05-25T14:52:44.743Z,26.10
2023-05-25T14:53:46.353Z,24.86
2023-05-25T14:54:47.782Z,25.09
2023-05-25T14:55:49.184Z,25.20
2023-05-25T14:56:50.683Z,24.49
2023-05-25T14:57:52.103Z,24.83
2023-05-25T14:58:53.607Z,25.07
2023-05-25T14:59:56.071Z,25.78
2023-05-25T15:00:57.620Z,26.07
2023-05-25T15:01:59.078Z,26.18
2023-05-25T15:03:00.703Z,26.44
2023-05-25T15:04:02.498Z,26.39
2023-05-25T15:05:04.178Z,26.31
2023-05-25T15:06:05.994Z,25.86
2023-05-25T15:07:07.478Z,25.12
2023-05-25T15:08:08.953Z,25.37
2023-05-25T15:09:10.532Z,25.64
2023-05-25T15:10:12.077Z,25.87
2023-05-25T15:11:13.580Z,25.70
2023-05-25T15:12:15.237Z,25.54
2023-05-25T15:13:16.781Z,25.64
2023-05-25T15:14:18.199Z,25.80
2023-05-25T15:15:19.671Z,26.00
2023-05-25T15:16:21.274Z,26.09
2023-05-25T15:17:22.793Z,25.74
2023-05-25T15:18:24.383Z,26.03
2023-05-25T15:19:25.908Z,26.12
2023-05-25T15:20:27.354Z,26.01
2023-05-25T15:21:29.179Z,26.01
2023-05-25T15:22:30.924Z,26.13
2023-05-25T15:23:32.379Z,25.59
2023-05-25T15:24:33.905Z,25.62
2023-05-25T15:25:35.911Z,25.69
2023-05-25T15:26:37.470Z,25.55
2023-05-25T15:27:38.910Z,26.13
2023-05-25T15:28:40.473Z,26.23
2023-05-25T15:29:41.974Z,26.53
2023-05-25T15:30:43.501Z,26.14
2023-05-25T15:31:46.236Z,25.90
2023-05-25T15:32:47.782Z,26.42
2023-05-25T15:33:57.950Z,26.15
2023-05-25T15:35:00.338Z,25.57
2023-05-25T15:36:01.855Z,25.48
2023-05-25T15:37:03.321Z,25.31
2023-05-25T15:38:04.862Z,25.45
2023-05-25T15:39:08.860Z,25.66
2023-05-25T15:40:10.968Z,25.61
2023-05-25T15:41:15.016Z,25.58
2023-05-25T15:42:16.567Z,25.61
2023-05-25T15:43:18.093Z,25.76
2023-05-25T15:44:19.502Z,25.80
2023-05-25T15:45:21.027Z,25.83
2023-05-25T15:46:22.470Z,25.62
2023-05-25T15:47:23.961Z,25.64
2023-05-25T15:48:26.395Z,25.35
2023-05-25T15:49:28.212Z,25.27
2023-05-25T15:50:30.292Z,25.37
2023-05-25T15:51:32.613Z,25.23
2023-05-25T15:52:34.036Z,25.29
2023-05-25T15:53:35.609Z,25.53
2023-05-25T15:54:37.294Z,25.42
2023-05-25T15:55:38.682Z,25.69
2023-05-25T15:56:40.148Z,25.55
2023-05-25T15:57:41.549Z,25.36
2023-05-25T15:58:46.935Z,25.50
2023-05-25T15:59:48.508Z,25.32
2023-05-25T16:00:49.918Z,25.17
2023-05-25T16:01:51.667Z,24.89
2023-05-25T16:02:53.218Z,25.08
2023-05-25T16:03:54.800Z,25.01
2023-05-25T16:04:56.458Z,24.82
2023-05-25T16:05:57.911Z,24.97
2023-05-25T16:07:01.199Z,25.07
2023-05-25T16:08:02.841Z,24.88
2023-05-25T16:09:04.844Z,24.93
2023-05-25T16:10:06.730Z,25.16
2023-05-25T16:11:08.218Z,25.16
2023-05-25T16:12:09.704Z,24.68
2023-05-25T16:13:11.157Z,24.49
2023-05-25T16:14:12.714Z,24.18
2023-05-25T16:15:14.157Z,23.68
2023-05-25T16:16:15.720Z,24.02
2023-05-25T16:17:17.209Z,24.45
2023-05-25T16:18:18.634Z,24.56
2023-05-25T16:19:20.108Z,24.67
2023-05-25T16:20:21.577Z,24.48
2023-05-25T16:21:23.218Z,24.66
2023-05-25T16:22:24.659Z,24.58
2023-05-25T16:23:26.106Z,24.65
2023-05-25T16:24:27.493Z,24.53
2023-05-25T16:25:29.067Z,24.49
2023-05-25T16:26:30.590Z,24.11
2023-05-25T16:27:32.097Z,24.07
2023-05-25T16:28:33.703Z,24.13
2023-05-25T16:29:35.143Z,24.05
2023-05-25T16:30:36.621Z,23.97
2023-05-25T16:31:38.103Z,23.67
2023-05-25T16:32:39.825Z,23.84
2023-05-25T16:33:41.927Z,23.91
2023-05-25T16:34:43.301Z,23.53
2023-05-25T16:35:45.009Z,23.55
2023-05-25T16:36:46.718Z,23.40
2023-05-25T16:37:48.205Z,23.45
2023-05-25T16:38:49.622Z,23.59
2023-05-25T16:39:51.035Z,23.79
2023-05-25T16:40:52.480Z,23.80
2023-05-25T16:41:54.054Z,23.23
2023-05-25T16:42:55.609Z,22.93
2023-05-25T16:43:57.068Z,23.14
2023-05-25T16:44:58.633Z,22.94
2023-05-25T16:46:00.060Z,22.83
2023-05-25T16:47:01.595Z,23.14
2023-05-25T16:48:03.152Z,22.97
2023-05-25T16:49:05.126Z,22.96
2023-05-25T16:50:07.445Z,22.98
2023-05-25T16:51:14.800Z,22.63
2023-05-25T16:52:16.347Z,22.35
2023-05-25T16:53:17.778Z,22.33
2023-05-25T16:54:19.240Z,22.31
2023-05-25T16:55:21.287Z,22.43
2023-05-25T16:56:24.669Z,22.31
2023-05-25T16:57:26.486Z,21.80
2023-05-25T16:58:27.886Z,21.93
2023-05-25T16:59:29.708Z,21.83
2023-05-25T17:00:31.157Z,21.85
2023-05-25T17:01:32.630Z,22.04
2023-05-25T17:02:34.188Z,22.00
2023-05-25T17:03:35.876Z,22.14
2023-05-25T17:04:37.407Z,22.01
2023-05-25T17:05:38.771Z,22.12
2023-05-25T17:06:40.259Z,22.14
2023-05-25T17:07:41.845Z,22.05
2023-05-25T17:08:43.300Z,21.89
2023-05-25T17:09:44.842Z,21.45
2023-05-25T17:10:47.973Z,21.52
2023-05-25T17:11:50.395Z,21.62
2023-05-25T17:12:53.032Z,21.64
2023-05-25T17:13:54.516Z,21.72
2023-05-25T17:14:55.929Z,21.64
2023-05-25T17:15:57.685Z,21.54
2023-05-25T17:16:59.090Z,21.13
2023-05-25T17:18:00.560Z,21.20
2023-05-25T17:19:02.147Z,21.08
2023-05-25T17:20:04.141Z,21.18
2023-05-25T17:21:05.681Z,21.26
2023-05-25T17:22:07.112Z,21.30
2023-05-25T17:30:48.630Z,20.58
2023-05-25T17:31:50.293Z,20.62
2023-05-25T17:37:30.874Z,20.52
2023-05-25T17:42:09.299Z,19.99
2023-05-25T17:46:43.793Z,19.88
2023-05-25T17:51:31.609Z,19.82
